Airfield :







YOU CAN JOIN US ON...

 
LOGIN :

Register | Disclaimer

   EN    FR    IT 

 









Legend :    VFR   Marginal VFR   IFR   Intensive IFR   Very Intensive IFR
Visi :
Ceiling :
>= 8 km
>= 3000ft
5 to 8 km
1000 to 3000 ft
1500m to 5 km
500 to 1000 ft
800 to 1500m
200 to 500 ft
< 800m
< 200 ft
Symbols :   Thunderstorms  Fog  Heavy snow  Heavy precipitations  Wind > 20 kt






- Airport Elevation : 20 ft
- IATA code : BOS


KBOS - General Edward Lawrence Logan International

CURRENT METAR :
  • 162054Z 33013KT 10SM FEW250 02/M19 A3046 RMK AO2 SLP314 T00221189 56005

EXPIRED METARs :
  • 161954Z 33009KT 10SM FEW250 03/M18 A3046 RMK AO2 SLP314 T00331183
  • 161854Z 34009G16KT 10SM FEW030 FEW250 03/M18 A3047 RMK AO2 SLP316 T00331183

TAF KBOS
Valid from the 16 at 21:00 until the 18 at 00:00 UTC


162058Z 1621/1724 35009KT P6SM FEW250
FM170200 01008KT P6SM SKC
FM170400 01009KT P6SM FEW250
FM170800 03010G17KT P6SM SCT250
FM171500 06012G21KT P6SM BKN035
FM172000 07014G23KT P6SM BKN030



MET'MAP, your aeronautical weather chart ! - Copyright ORBIFLY December 2007 - Disclaimer

ORBIFLY MET'MAP TEAM :

Programming & Development : Alexandra Zaïnal
Concept & Development : Baudouin d'Aumeries
Co-Development & Prog : Marc-Olivier Méhu
Technical & hardware support : Manuel Goepfert

Contact : metmap@orbifly.com




SOURCES & CREDITS :

   NOAA